sensor_id;sensor_type;location;lat;lon;timestamp;pressure;altitude;pressure_sealevel;temperature;humidity
22755;BME280;11544;42.020;23.094;2023-08-12T00:01:22;97617.50;;;20.40;100.00
22755;BME280;11544;42.020;23.094;2023-08-12T00:03:51;97613.28;;;20.50;100.00
22755;BME280;11544;42.020;23.094;2023-08-12T00:06:18;97620.59;;;20.47;100.00
22755;BME280;11544;42.020;23.094;2023-08-12T00:08:45;97621.53;;;20.46;100.00
22755;BME280;11544;42.020;23.094;2023-08-12T00:11:11;97620.94;;;20.68;100.00
22755;BME280;11544;42.020;23.094;2023-08-12T00:13:38;97615.22;;;20.74;100.00
22755;BME280;11544;42.020;23.094;2023-08-12T00:16:05;97617.94;;;20.60;100.00
22755;BME280;11544;42.020;23.094;2023-08-12T00:18:32;97618.78;;;20.73;98.84
22755;BME280;11544;42.020;23.094;2023-08-12T00:21:05;97624.72;;;20.51;100.00
22755;BME280;11544;42.020;23.094;2023-08-12T00:23:32;97615.28;;;20.85;97.15
22755;BME280;11544;42.020;23.094;2023-08-12T00:25:59;97624.16;;;20.33;100.00
22755;BME280;11544;42.020;23.094;2023-08-12T00:28:26;97619.09;;;20.94;99.13
22755;BME280;11544;42.020;23.094;2023-08-12T00:30:53;97619.28;;;20.52;100.00
22755;BME280;11544;42.020;23.094;2023-08-12T00:33:20;97615.72;;;20.54;100.00
22755;BME280;11544;42.020;23.094;2023-08-12T00:35:55;97618.66;;;20.87;98.85
22755;BME280;11544;42.020;23.094;2023-08-12T00:38:23;97621.97;;;20.78;98.03
22755;BME280;11544;42.020;23.094;2023-08-12T00:40:49;97615.19;;;20.48;97.60
22755;BME280;11544;42.020;23.094;2023-08-12T00:43:16;97609.69;;;21.14;95.92
22755;BME280;11544;42.020;23.094;2023-08-12T00:45:43;97620.38;;;20.88;97.24
22755;BME280;11544;42.020;23.094;2023-08-12T00:48:10;97616.47;;;20.81;97.18
22755;BME280;11544;42.020;23.094;2023-08-12T00:50:40;97617.84;;;20.48;97.67
22755;BME280;11544;42.020;23.094;2023-08-12T00:53:07;97610.22;;;20.69;97.31
22755;BME280;11544;42.020;23.094;2023-08-12T00:55:35;97607.50;;;21.08;97.16
22755;BME280;11544;42.020;23.094;2023-08-12T00:58:02;97610.63;;;20.76;97.70
22755;BME280;11544;42.020;23.094;2023-08-12T01:00:30;97616.47;;;20.81;100.00
22755;BME280;11544;42.020;23.094;2023-08-12T01:02:57;97613.41;;;20.75;97.71
22755;BME280;11544;42.020;23.094;2023-08-12T01:05:24;97603.31;;;20.54;99.08
22755;BME280;11544;42.020;23.094;2023-08-12T01:07:51;97611.38;;;20.78;98.28
22755;BME280;11544;42.020;23.094;2023-08-12T01:10:20;97608.41;;;20.83;99.73
22755;BME280;11544;42.020;23.094;2023-08-12T01:12:50;97608.16;;;20.99;98.71
22755;BME280;11544;42.020;23.094;2023-08-12T01:15:24;97616.22;;;20.20;100.00
22755;BME280;11544;42.020;23.094;2023-08-12T01:17:53;97615.63;;;20.55;99.58
22755;BME280;11544;42.020;23.094;2023-08-12T01:20:20;97608.19;;;20.73;98.48
22755;BME280;11544;42.020;23.094;2023-08-12T01:23:25;97604.28;;;21.15;95.96
22755;BME280;11544;42.020;23.094;2023-08-12T01:25:44;97602.44;;;21.05;95.67
22755;BME280;11544;42.020;23.094;2023-08-12T01:28:11;97603.22;;;20.68;96.49
22755;BME280;11544;42.020;23.094;2023-08-12T01:30:57;97596.38;;;21.03;94.92
22755;BME280;11544;42.020;23.094;2023-08-12T01:33:33;97602.03;;;20.85;95.34
22755;BME280;11544;42.020;23.094;2023-08-12T01:36:15;97600.25;;;20.73;99.72
22755;BME280;11544;42.020;23.094;2023-08-12T01:38:43;97605.66;;;20.46;100.00
22755;BME280;11544;42.020;23.094;2023-08-12T01:41:12;97607.53;;;20.18;100.00
22755;BME280;11544;42.020;23.094;2023-08-12T01:43:40;97609.03;;;20.48;100.00
22755;BME280;11544;42.020;23.094;2023-08-12T01:46:08;97604.16;;;20.29;100.00
22755;BME280;11544;42.020;23.094;2023-08-12T01:48:35;97601.31;;;20.32;100.00
22755;BME280;11544;42.020;23.094;2023-08-12T01:51:02;97601.28;;;20.19;100.00
22755;BME280;11544;42.020;23.094;2023-08-12T01:53:29;97606.41;;;20.61;100.00
22755;BME280;11544;42.020;23.094;2023-08-12T01:55:56;97600.66;;;20.28;100.00
22755;BME280;11544;42.020;23.094;2023-08-12T01:58:22;97603.53;;;20.25;100.00
22755;BME280;11544;42.020;23.094;2023-08-12T02:00:49;97606.59;;;20.45;100.00
22755;BME280;11544;42.020;23.094;2023-08-12T02:03:16;97608.03;;;19.98;100.00
22755;BME280;11544;42.020;23.094;2023-08-12T02:05:43;97614.22;;;20.11;100.00
22755;BME280;11544;42.020;23.094;2023-08-12T02:08:10;97614.97;;;20.13;100.00
22755;BME280;11544;42.020;23.094;2023-08-12T02:10:37;97606.59;;;20.45;100.00
22755;BME280;11544;42.020;23.094;2023-08-12T02:13:03;97613.25;;;20.38;100.00
22755;BME280;11544;42.020;23.094;2023-08-12T02:15:30;97616.69;;;20.65;100.00
22755;BME280;11544;42.020;23.094;2023-08-12T02:17:57;97614.81;;;20.02;100.00
22755;BME280;11544;42.020;23.094;2023-08-12T02:20:25;97613.38;;;20.36;100.00
22755;BME280;11544;42.020;23.094;2023-08-12T02:22:52;97615.38;;;20.33;100.00
22755;BME280;11544;42.020;23.094;2023-08-12T02:25:19;97619.94;;;20.30;100.00
22755;BME280;11544;42.020;23.094;2023-08-12T02:27:46;97618.94;;;19.93;100.00
22755;BME280;11544;42.020;23.094;2023-08-12T02:30:13;97616.16;;;20.60;100.00
22755;BME280;11544;42.020;23.094;2023-08-12T02:32:39;97625.78;;;20.48;99.94
22755;BME280;11544;42.020;23.094;2023-08-12T02:37:55;97617.91;;;20.21;100.00
22755;BME280;11544;42.020;23.094;2023-08-12T02:40:22;97629.66;;;20.04;100.00
22755;BME280;11544;42.020;23.094;2023-08-12T02:42:49;97623.19;;;20.08;100.00
22755;BME280;11544;42.020;23.094;2023-08-12T02:45:16;97634.03;;;20.44;100.00
22755;BME280;11544;42.020;23.094;2023-08-12T02:47:43;97626.84;;;20.46;100.00
22755;BME280;11544;42.020;23.094;2023-08-12T02:50:10;97632.03;;;20.35;100.00
22755;BME280;11544;42.020;23.094;2023-08-12T02:52:37;97627.97;;;20.16;100.00
22755;BME280;11544;42.020;23.094;2023-08-12T02:55:04;97632.47;;;20.67;100.00
22755;BME280;11544;42.020;23.094;2023-08-12T02:57:30;97639.91;;;19.69;100.00
22755;BME280;11544;42.020;23.094;2023-08-12T02:59:57;97635.16;;;20.14;100.00
22755;BME280;11544;42.020;23.094;2023-08-12T03:02:24;97635.09;;;20.54;100.00
22755;BME280;11544;42.020;23.094;2023-08-12T03:04:51;97625.47;;;20.53;100.00
22755;BME280;11544;42.020;23.094;2023-08-12T03:07:20;97639.25;;;20.05;100.00
22755;BME280;11544;42.020;23.094;2023-08-12T03:09:47;97635.91;;;20.29;100.00
22755;BME280;11544;42.020;23.094;2023-08-12T03:12:14;97643.78;;;20.69;100.00
22755;BME280;11544;42.020;23.094;2023-08-12T03:14:40;97646.13;;;19.95;100.00
22755;BME280;11544;42.020;23.094;2023-08-12T03:17:07;97640.59;;;19.85;100.00
22755;BME280;11544;42.020;23.094;2023-08-12T03:19:34;97641.16;;;19.91;100.00
22755;BME280;11544;42.020;23.094;2023-08-12T03:22:01;97651.41;;;19.41;100.00
22755;BME280;11544;42.020;23.094;2023-08-12T03:24:28;97647.00;;;19.69;100.00
22755;BME280;11544;42.020;23.094;2023-08-12T03:26:55;97639.47;;;20.02;100.00
22755;BME280;11544;42.020;23.094;2023-08-12T03:29:21;97648.84;;;20.21;100.00
22755;BME280;11544;42.020;23.094;2023-08-12T03:31:48;97647.91;;;19.67;100.00
22755;BME280;11544;42.020;23.094;2023-08-12T03:34:15;97646.50;;;19.76;100.00
22755;BME280;11544;42.020;23.094;2023-08-12T03:36:42;97646.53;;;19.62;100.00
22755;BME280;11544;42.020;23.094;2023-08-12T03:39:08;97651.09;;;19.45;100.00
22755;BME280;11544;42.020;23.094;2023-08-12T03:41:35;97653.50;;;19.63;100.00
22755;BME280;11544;42.020;23.094;2023-08-12T03:44:02;97651.94;;;19.87;100.00
22755;BME280;11544;42.020;23.094;2023-08-12T03:46:29;97663.00;;;19.11;100.00
22755;BME280;11544;42.020;23.094;2023-08-12T03:48:56;97660.88;;;19.58;100.00
22755;BME280;11544;42.020;23.094;2023-08-12T03:51:23;97659.63;;;20.18;100.00
22755;BME280;11544;42.020;23.094;2023-08-12T03:53:50;97660.59;;;19.62;100.00
22755;BME280;11544;42.020;23.094;2023-08-12T03:56:20;97656.47;;;20.25;100.00
22755;BME280;11544;42.020;23.094;2023-08-12T03:58:47;97661.09;;;20.22;100.00
22755;BME280;11544;42.020;23.094;2023-08-12T04:01:14;97656.78;;;20.21;100.00
22755;BME280;11544;42.020;23.094;2023-08-12T04:03:41;97658.81;;;20.30;100.00
22755;BME280;11544;42.020;23.094;2023-08-12T04:06:07;97661.34;;;19.64;100.00
22755;BME280;11544;42.020;23.094;2023-08-12T04:08:37;97665.22;;;19.73;100.00
22755;BME280;11544;42.020;23.094;2023-08-12T04:11:04;97662.44;;;19.89;100.00
22755;BME280;11544;42.020;23.094;2023-08-12T04:13:31;97665.34;;;19.57;100.00
22755;BME280;11544;42.020;23.094;2023-08-12T04:16:03;97664.56;;;19.70;100.00
22755;BME280;11544;42.020;23.094;2023-08-12T04:18:31;97667.75;;;19.75;100.00
22755;BME280;11544;42.020;23.094;2023-08-12T04:21:06;97664.41;;;20.25;100.00
22755;BME280;11544;42.020;23.094;2023-08-12T04:23:33;97671.50;;;19.85;100.00
22755;BME280;11544;42.020;23.094;2023-08-12T04:26:00;97672.13;;;20.16;100.00
22755;BME280;11544;42.020;23.094;2023-08-12T04:28:26;97678.47;;;19.86;100.00
22755;BME280;11544;42.020;23.094;2023-08-12T04:30:53;97673.44;;;19.96;100.00
22755;BME280;11544;42.020;23.094;2023-08-12T04:33:20;97680.81;;;19.63;100.00
22755;BME280;11544;42.020;23.094;2023-08-12T04:35:47;97671.84;;;19.93;100.00
22755;BME280;11544;42.020;23.094;2023-08-12T04:38:14;97679.69;;;19.53;100.00
22755;BME280;11544;42.020;23.094;2023-08-12T04:40:42;97688.72;;;19.36;100.00
22755;BME280;11544;42.020;23.094;2023-08-12T04:43:09;97681.03;;;20.27;100.00
22755;BME280;11544;42.020;23.094;2023-08-12T04:45:36;97684.75;;;20.25;100.00
22755;BME280;11544;42.020;23.094;2023-08-12T04:48:03;97681.44;;;20.08;100.00
22755;BME280;11544;42.020;23.094;2023-08-12T04:50:30;97682.16;;;20.63;100.00
22755;BME280;11544;42.020;23.094;2023-08-12T04:53:00;97682.16;;;20.63;100.00
22755;BME280;11544;42.020;23.094;2023-08-12T04:55:27;97688.06;;;20.41;99.48
22755;BME280;11544;42.020;23.094;2023-08-12T04:57:54;97682.13;;;21.02;97.05
22755;BME280;11544;42.020;23.094;2023-08-12T05:00:21;97683.59;;;21.19;94.50
22755;BME280;11544;42.020;23.094;2023-08-12T05:02:48;97679.38;;;22.49;87.89
22755;BME280;11544;42.020;23.094;2023-08-12T05:05:17;97672.00;;;22.53;82.78
22755;BME280;11544;42.020;23.094;2023-08-12T05:07:44;97684.00;;;22.34;85.65
22755;BME280;11544;42.020;23.094;2023-08-12T05:10:15;97682.03;;;21.90;86.76
22755;BME280;11544;42.020;23.094;2023-08-12T05:12:43;97686.63;;;22.70;81.06
22755;BME280;11544;42.020;23.094;2023-08-12T05:15:17;97684.88;;;22.35;82.78
22755;BME280;11544;42.020;23.094;2023-08-12T05:17:44;97678.84;;;23.13;78.96
22755;BME280;11544;42.020;23.094;2023-08-12T05:20:11;97672.91;;;23.10;80.78
22755;BME280;11544;42.020;23.094;2023-08-12T05:22:37;97676.38;;;22.76;80.04
22755;BME280;11544;42.020;23.094;2023-08-12T05:25:05;97668.69;;;23.30;76.14
22755;BME280;11544;42.020;23.094;2023-08-12T05:27:32;97684.09;;;22.79;77.49
22755;BME280;11544;42.020;23.094;2023-08-12T05:29:59;97677.38;;;23.98;72.32
22755;BME280;11544;42.020;23.094;2023-08-12T05:32:31;97675.09;;;23.93;73.62
22755;BME280;11544;42.020;23.094;2023-08-12T05:34:58;97676.75;;;24.05;72.36
22755;BME280;11544;42.020;23.094;2023-08-12T05:37:24;97671.28;;;24.07;71.90
22755;BME280;11544;42.020;23.094;2023-08-12T05:39:55;97670.53;;;25.10;67.30
22755;BME280;11544;42.020;23.094;2023-08-12T05:42:22;97672.47;;;24.98;66.85
22755;BME280;11544;42.020;23.094;2023-08-12T05:44:51;97668.50;;;24.92;67.42
22755;BME280;11544;42.020;23.094;2023-08-12T05:47:18;97667.41;;;24.95;66.90
22755;BME280;11544;42.020;23.094;2023-08-12T05:49:46;97667.91;;;25.70;64.92
22755;BME280;11544;42.020;23.094;2023-08-12T05:52:13;97670.16;;;25.65;63.42
22755;BME280;11544;42.020;23.094;2023-08-12T05:54:41;97671.72;;;25.67;63.03
22755;BME280;11544;42.020;23.094;2023-08-12T05:57:08;97664.31;;;26.49;59.02
22755;BME280;11544;42.020;23.094;2023-08-12T05:59:35;97661.81;;;26.18;60.23
22755;BME280;11544;42.020;23.094;2023-08-12T06:02:04;97659.66;;;24.92;66.05
22755;BME280;11544;42.020;23.094;2023-08-12T06:04:31;97655.78;;;26.92;57.45
22755;BME280;11544;42.020;23.094;2023-08-12T06:06:58;97645.81;;;26.85;56.62
22755;BME280;11544;42.020;23.094;2023-08-12T06:09:25;97644.41;;;26.80;57.78
22755;BME280;11544;42.020;23.094;2023-08-12T06:11:51;97636.63;;;25.91;58.95
22755;BME280;11544;42.020;23.094;2023-08-12T06:14:18;97638.44;;;25.81;58.36
22755;BME280;11544;42.020;23.094;2023-08-12T06:16:45;97636.22;;;26.25;59.11
22755;BME280;11544;42.020;23.094;2023-08-12T06:19:12;97636.91;;;25.98;55.03
22755;BME280;11544;42.020;23.094;2023-08-12T06:29:37;97629.19;;;27.74;50.13
22755;BME280;11544;42.020;23.094;2023-08-12T06:32:37;97631.97;;;25.74;55.07
22755;BME280;11544;42.020;23.094;2023-08-12T06:35:05;97620.47;;;27.16;52.73
22755;BME280;11544;42.020;23.094;2023-08-12T06:37:32;97611.44;;;27.27;49.51
22755;BME280;11544;42.020;23.094;2023-08-12T06:39:59;97617.97;;;27.15;49.20
22755;BME280;11544;42.020;23.094;2023-08-12T06:42:26;97621.59;;;25.90;51.56
22755;BME280;11544;42.020;23.094;2023-08-12T06:44:56;97611.16;;;27.66;49.19
22755;BME280;11544;42.020;23.094;2023-08-12T06:47:23;97615.69;;;26.82;51.56
22755;BME280;11544;42.020;23.094;2023-08-12T06:49:50;97616.84;;;26.80;51.00
22755;BME280;11544;42.020;23.094;2023-08-12T06:52:17;97613.28;;;27.27;50.42
22755;BME280;11544;42.020;23.094;2023-08-12T06:54:43;97612.88;;;26.27;51.71
22755;BME280;11544;42.020;23.094;2023-08-12T06:57:10;97613.31;;;27.07;50.48
22755;BME280;11544;42.020;23.094;2023-08-12T06:59:38;97614.44;;;27.14;49.74
22755;BME280;11544;42.020;23.094;2023-08-12T07:02:05;97602.59;;;27.17;49.33
22755;BME280;11544;42.020;23.094;2023-08-12T07:04:32;97611.78;;;26.77;50.47
22755;BME280;11544;42.020;23.094;2023-08-12T07:06:59;97604.28;;;27.18;47.76
22755;BME280;11544;42.020;23.094;2023-08-12T07:09:26;97610.63;;;27.44;48.59
22755;BME280;11544;42.020;23.094;2023-08-12T07:11:53;97607.84;;;27.09;49.68
22755;BME280;11544;42.020;23.094;2023-08-12T07:17:00;97604.28;;;27.18;50.94
22755;BME280;11544;42.020;23.094;2023-08-12T07:19:29;97598.66;;;27.11;49.47
22755;BME280;11544;42.020;23.094;2023-08-12T07:22:02;97596.00;;;27.39;48.15
22755;BME280;11544;42.020;23.094;2023-08-12T07:24:29;97597.47;;;27.51;48.44
22755;BME280;11544;42.020;23.094;2023-08-12T07:26:56;97588.59;;;28.22;47.41
22755;BME280;11544;42.020;23.094;2023-08-12T07:29:23;97589.69;;;27.94;47.20
22755;BME280;11544;42.020;23.094;2023-08-12T07:31:51;97597.94;;;26.91;47.75
22755;BME280;11544;42.020;23.094;2023-08-12T07:34:18;97581.53;;;27.95;47.76
22755;BME280;11544;42.020;23.094;2023-08-12T07:36:45;97587.88;;;28.38;45.60
22755;BME280;11544;42.020;23.094;2023-08-12T07:39:12;97584.91;;;27.97;45.39
22755;BME280;11544;42.020;23.094;2023-08-12T07:41:43;97580.88;;;28.45;43.97
22755;BME280;11544;42.020;23.094;2023-08-12T07:44:12;97579.50;;;28.15;43.38
22755;BME280;11544;42.020;23.094;2023-08-12T07:46:40;97573.25;;;27.89;44.58
22755;BME280;11544;42.020;23.094;2023-08-12T07:49:10;97590.63;;;26.36;45.99
22755;BME280;11544;42.020;23.094;2023-08-12T07:51:51;97574.09;;;27.89;43.43
22755;BME280;11544;42.020;23.094;2023-08-12T07:54:22;97567.91;;;27.89;44.05
22755;BME280;11544;42.020;23.094;2023-08-12T07:56:48;97562.31;;;28.78;42.95
22755;BME280;11544;42.020;23.094;2023-08-12T07:59:15;97568.19;;;26.94;45.24
22755;BME280;11544;42.020;23.094;2023-08-12T08:01:42;97566.63;;;27.29;46.29
22755;BME280;11544;42.020;23.094;2023-08-12T08:04:09;97562.38;;;28.95;42.70
22755;BME280;11544;42.020;23.094;2023-08-12T08:06:35;97562.19;;;27.20;42.40
22755;BME280;11544;42.020;23.094;2023-08-12T08:09:03;97555.25;;;27.99;43.59
22755;BME280;11544;42.020;23.094;2023-08-12T08:11:31;97566.59;;;26.36;45.66
22755;BME280;11544;42.020;23.094;2023-08-12T08:13:58;97547.31;;;28.41;41.45
22755;BME280;11544;42.020;23.094;2023-08-12T08:16:25;97546.63;;;28.91;42.72
22755;BME280;11544;42.020;23.094;2023-08-12T08:18:52;97541.94;;;29.02;42.54
22755;BME280;11544;42.020;23.094;2023-08-12T08:21:19;97545.69;;;29.84;40.11
22755;BME280;11544;42.020;23.094;2023-08-12T08:23:45;97540.47;;;29.74;40.02
22755;BME280;11544;42.020;23.094;2023-08-12T08:26:12;97532.72;;;29.63;39.85
22755;BME280;11544;42.020;23.094;2023-08-12T08:28:58;97538.69;;;28.03;42.17
22755;BME280;11544;42.020;23.094;2023-08-12T08:31:25;97540.88;;;28.00;43.81
22755;BME280;11544;42.020;23.094;2023-08-12T08:33:59;97531.66;;;28.89;44.30
22755;BME280;11544;42.020;23.094;2023-08-12T08:36:28;97533.63;;;28.44;44.18
22755;BME280;11544;42.020;23.094;2023-08-12T08:38:55;97530.56;;;28.39;45.50
22755;BME280;11544;42.020;23.094;2023-08-12T08:41:21;97529.38;;;28.07;43.81
22755;BME280;11544;42.020;23.094;2023-08-12T08:43:55;97520.16;;;28.36;43.27
22755;BME280;11544;42.020;23.094;2023-08-12T08:46:24;97518.69;;;28.42;42.74
22755;BME280;11544;42.020;23.094;2023-08-12T08:48:51;97514.78;;;28.62;42.36
22755;BME280;11544;42.020;23.094;2023-08-12T08:51:18;97518.50;;;27.73;43.58
22755;BME280;11544;42.020;23.094;2023-08-12T08:54:04;97516.25;;;27.24;45.64
22755;BME280;11544;42.020;23.094;2023-08-12T08:56:31;97515.13;;;28.07;44.21
22755;BME280;11544;42.020;23.094;2023-08-12T08:59:08;97513.56;;;26.97;47.14
22755;BME280;11544;42.020;23.094;2023-08-12T09:01:36;97518.47;;;27.83;43.99
22755;BME280;11544;42.020;23.094;2023-08-12T09:04:03;97503.56;;;29.01;42.89
22755;BME280;11544;42.020;23.094;2023-08-12T09:06:30;97504.19;;;28.53;45.02
22755;BME280;11544;42.020;23.094;2023-08-12T09:08:58;97504.50;;;29.43;42.12
22755;BME280;11544;42.020;23.094;2023-08-12T09:11:28;97493.22;;;29.31;43.70
22755;BME280;11544;42.020;23.094;2023-08-12T09:13:55;97494.13;;;29.81;42.02
22755;BME280;11544;42.020;23.094;2023-08-12T09:16:25;97481.00;;;30.66;40.12
22755;BME280;11544;42.020;23.094;2023-08-12T09:18:55;97483.22;;;29.58;41.34
22755;BME280;11544;42.020;23.094;2023-08-12T09:21:22;97481.81;;;30.11;41.63
22755;BME280;11544;42.020;23.094;2023-08-12T09:23:49;97490.34;;;28.39;41.81
22755;BME280;11544;42.020;23.094;2023-08-12T09:26:17;97471.25;;;28.77;40.33
22755;BME280;11544;42.020;23.094;2023-08-12T09:28:44;97482.97;;;28.07;43.80
22755;BME280;11544;42.020;23.094;2023-08-12T09:31:22;97471.41;;;28.67;43.12
22755;BME280;11544;42.020;23.094;2023-08-12T09:34:03;97469.75;;;28.40;43.06
22755;BME280;11544;42.020;23.094;2023-08-12T09:36:30;97472.66;;;28.20;44.13
22755;BME280;11544;42.020;23.094;2023-08-12T09:38:57;97465.13;;;28.84;43.36
22755;BME280;11544;42.020;23.094;2023-08-12T09:41:33;97460.50;;;29.19;41.68
22755;BME280;11544;42.020;23.094;2023-08-12T09:44:07;97459.75;;;27.90;43.95
22755;BME280;11544;42.020;23.094;2023-08-12T09:46:35;97455.31;;;28.67;44.29
22755;BME280;11544;42.020;23.094;2023-08-12T09:49:02;97448.88;;;28.94;42.17
22755;BME280;11544;42.020;23.094;2023-08-12T09:51:37;97449.44;;;29.22;42.16
22755;BME280;11544;42.020;23.094;2023-08-12T09:54:06;97445.72;;;29.97;39.15
22755;BME280;11544;42.020;23.094;2023-08-12T09:56:51;97440.75;;;30.50;39.42
22755;BME280;11544;42.020;23.094;2023-08-12T10:00:00;97437.19;;;30.49;41.06
22755;BME280;11544;42.020;23.094;2023-08-12T10:02:36;97436.53;;;29.59;41.03
22755;BME280;11544;42.020;23.094;2023-08-12T10:05:27;97438.88;;;29.21;42.79
22755;BME280;11544;42.020;23.094;2023-08-12T10:07:57;97427.22;;;28.87;41.49
22755;BME280;11544;42.020;23.094;2023-08-12T10:32:20;97397.66;;;31.58;38.34
22755;BME280;11544;42.020;23.094;2023-08-12T10:34:53;97403.66;;;31.69;36.58
22755;BME280;11544;42.020;23.094;2023-08-12T10:37:23;97388.78;;;30.89;37.19
22755;BME280;11544;42.020;23.094;2023-08-12T10:39:51;97392.72;;;31.01;39.87
22755;BME280;11544;42.020;23.094;2023-08-12T10:45:04;97385.19;;;30.96;36.33
22755;BME280;11544;42.020;23.094;2023-08-12T10:47:42;97379.31;;;30.30;41.29
22755;BME280;11544;42.020;23.094;2023-08-12T10:50:21;97379.50;;;30.29;41.18
22755;BME280;11544;42.020;23.094;2023-08-12T10:52:53;97386.84;;;30.35;40.95
22755;BME280;11544;42.020;23.094;2023-08-12T10:57:48;97383.28;;;29.87;40.17
22755;BME280;11544;42.020;23.094;2023-08-12T11:00:36;97374.00;;;30.06;39.34
22755;BME280;11544;42.020;23.094;2023-08-12T11:03:02;97375.28;;;29.29;40.49
22755;BME280;11544;42.020;23.094;2023-08-12T11:05:38;97368.72;;;29.65;40.93
22755;BME280;11544;42.020;23.094;2023-08-12T11:08:05;97367.53;;;29.59;41.42
22755;BME280;11544;42.020;23.094;2023-08-12T11:10:33;97358.81;;;29.73;39.72
22755;BME280;11544;42.020;23.094;2023-08-12T11:13:00;97368.25;;;29.20;42.55
22755;BME280;11544;42.020;23.094;2023-08-12T11:17:59;97366.19;;;29.55;40.87
22755;BME280;11544;42.020;23.094;2023-08-12T11:20:30;97361.31;;;29.67;41.25
22755;BME280;11544;42.020;23.094;2023-08-12T11:22:57;97363.69;;;29.45;38.53
22755;BME280;11544;42.020;23.094;2023-08-12T11:25:27;97347.69;;;29.85;37.07
22755;BME280;11544;42.020;23.094;2023-08-12T11:27:56;97358.97;;;30.36;36.99
22755;BME280;11544;42.020;23.094;2023-08-12T11:30:23;97346.66;;;29.86;39.03
22755;BME280;11544;42.020;23.094;2023-08-12T11:32:51;97351.22;;;29.85;38.51
22755;BME280;11544;42.020;23.094;2023-08-12T11:35:18;97348.28;;;30.51;38.63
22755;BME280;11544;42.020;23.094;2023-08-12T11:37:46;97341.97;;;29.88;39.00
22755;BME280;11544;42.020;23.094;2023-08-12T11:40:14;97341.59;;;29.99;37.91
22755;BME280;11544;42.020;23.094;2023-08-12T11:42:42;97349.59;;;29.43;41.63
22755;BME280;11544;42.020;23.094;2023-08-12T11:45:11;97337.81;;;30.25;37.50
22755;BME280;11544;42.020;23.094;2023-08-12T11:47:40;97347.41;;;29.39;38.66
22755;BME280;11544;42.020;23.094;2023-08-12T11:50:11;97342.91;;;29.15;40.08
22755;BME280;11544;42.020;23.094;2023-08-12T11:52:39;97337.50;;;29.72;39.19
22755;BME280;11544;42.020;23.094;2023-08-12T11:55:06;97335.84;;;29.46;39.21
22755;BME280;11544;42.020;23.094;2023-08-12T11:57:33;97324.88;;;29.81;38.57
22755;BME280;11544;42.020;23.094;2023-08-12T12:00:07;97332.16;;;28.90;40.89
22755;BME280;11544;42.020;23.094;2023-08-12T12:02:51;97333.63;;;29.58;42.06
22755;BME280;11544;42.020;23.094;2023-08-12T12:05:26;97331.63;;;29.03;40.83
22755;BME280;11544;42.020;23.094;2023-08-12T12:07:53;97321.88;;;29.59;40.14
22755;BME280;11544;42.020;23.094;2023-08-12T12:13:00;97316.53;;;28.93;41.71
22755;BME280;11544;42.020;23.094;2023-08-12T12:15:27;97311.28;;;29.66;42.72
22755;BME280;11544;42.020;23.094;2023-08-12T12:17:54;97308.28;;;29.69;44.21
22755;BME280;11544;42.020;23.094;2023-08-12T12:20:21;97302.03;;;29.85;42.95
22755;BME280;11544;42.020;23.094;2023-08-12T12:22:50;97317.22;;;29.28;41.70
22755;BME280;11544;42.020;23.094;2023-08-12T12:25:17;97307.75;;;29.73;41.62
22755;BME280;11544;42.020;23.094;2023-08-12T12:27:45;97313.88;;;29.34;43.20
22755;BME280;11544;42.020;23.094;2023-08-12T12:30:13;97302.25;;;29.67;42.04
22755;BME280;11544;42.020;23.094;2023-08-12T12:32:44;97306.31;;;29.05;43.62
22755;BME280;11544;42.020;23.094;2023-08-12T12:35:12;97296.88;;;29.67;42.69
22755;BME280;11544;42.020;23.094;2023-08-12T12:37:52;97286.88;;;29.92;43.49
22755;BME280;11544;42.020;23.094;2023-08-12T12:40:19;97290.50;;;29.68;43.39
22755;BME280;11544;42.020;23.094;2023-08-12T12:42:46;97289.47;;;29.61;42.61
22755;BME280;11544;42.020;23.094;2023-08-12T12:45:13;97285.44;;;29.65;43.17
22755;BME280;11544;42.020;23.094;2023-08-12T12:47:42;97275.22;;;29.77;43.24
22755;BME280;11544;42.020;23.094;2023-08-12T12:55:46;97269.88;;;29.52;42.31
22755;BME280;11544;42.020;23.094;2023-08-12T12:58:21;97265.69;;;29.97;42.59
22755;BME280;11544;42.020;23.094;2023-08-12T13:00:51;97269.50;;;29.71;40.91
22755;BME280;11544;42.020;23.094;2023-08-12T13:03:19;97266.41;;;30.53;41.83
22755;BME280;11544;42.020;23.094;2023-08-12T13:05:48;97252.66;;;30.94;40.91
22755;BME280;11544;42.020;23.094;2023-08-12T13:08:16;97257.09;;;30.02;40.21
22755;BME280;11544;42.020;23.094;2023-08-12T13:10:43;97256.78;;;30.36;41.15
22755;BME280;11544;42.020;23.094;2023-08-12T13:13:10;97261.84;;;30.54;43.11
22755;BME280;11544;42.020;23.094;2023-08-12T13:15:37;97258.69;;;30.50;39.79
22755;BME280;11544;42.020;23.094;2023-08-12T13:18:04;97252.91;;;29.68;41.10
22755;BME280;11544;42.020;23.094;2023-08-12T13:44:54;97247.28;;;29.05;39.81
22755;BME280;11544;42.020;23.094;2023-08-12T13:47:26;97248.31;;;28.88;40.65
22755;BME280;11544;42.020;23.094;2023-08-12T13:57:51;97246.97;;;28.76;41.57
22755;BME280;11544;42.020;23.094;2023-08-12T14:00:28;97243.44;;;28.67;40.84
22755;BME280;11544;42.020;23.094;2023-08-12T14:02:58;97243.09;;;29.19;40.47
22755;BME280;11544;42.020;23.094;2023-08-12T14:05:26;97245.94;;;29.26;40.64
22755;BME280;11544;42.020;23.094;2023-08-12T14:07:53;97238.56;;;29.20;39.96
22755;BME280;11544;42.020;23.094;2023-08-12T14:10:20;97249.66;;;29.08;41.48
22755;BME280;11544;42.020;23.094;2023-08-12T14:13:00;97236.56;;;28.97;41.46
22755;BME280;11544;42.020;23.094;2023-08-12T14:15:30;97241.28;;;28.62;41.91
22755;BME280;11544;42.020;23.094;2023-08-12T14:18:00;97231.88;;;28.83;40.80
22755;BME280;11544;42.020;23.094;2023-08-12T14:20:27;97236.56;;;29.13;39.21